• Join FlightAware (Why Join?)
  • Login
  • US Flag 
03:41PM EDT


 

Airport Tracker/Info


-or-


 

Live Flight TrackerFlight Track Log ✈ N877PM ✈ 05-Oct-2013 ✈ KCHA - KAPF

Flight Track Log - Related Links

Times and Time Zones

All times are in EDT time to prevent confusion due to time zone crossing. See the N877PM flight status page for this flight to view local times or setup timezone preferences in your user account.

Time Position Orientation Groundspeed Altitude Reporting Facility
EDT Latitude Longitude Course Direction KTS MPH feet Rate Location/Type
01:08PM 34.9222 -85.1839 145° Southeast 151 174 5,700  Level Atlanta Center
01:09PM 34.8786 -85.1503 148° Southeast 164 189 7,300 1,500 Climbing Atlanta Center
01:10PM 34.8311 -85.1142 148° Southeast 179 206 8,800 1,560 Climbing Atlanta Center
01:11PM 34.7833 -85.0756 146° Southeast 201 231 10,500 1,740 Climbing Atlanta Center
01:12PM 34.5438 -84.9950 145° Southeast  Level Estimated
01:12PM 34.7336 -85.0397 149° Southeast 206 237 12,300  Level Atlanta Center
01:13PM 34.6839 -85.0011 147° Southeast 206 237 13,700 1,320 Climbing Atlanta Center
01:14PM 34.6339 -84.9578 145° Southeast 212 244 15,000 1,260 Climbing Atlanta Center
01:15PM 34.5842 -84.9219 149° Southeast 212 244 16,300 1,260 Climbing Atlanta Center
01:16PM 34.5303 -84.8783 146° Southeast 217 250 17,600 1,080 Climbing Atlanta Center
01:17PM 34.4825 -84.8400 147° Southeast 217 250 18,500 900 Climbing Atlanta Center
01:18PM 34.4286 -84.8019 150° Southeast 217 250 19,400 900 Climbing Atlanta Center
01:19PM 34.3725 -84.7586 147° Southeast 223 257 20,400 900 Climbing Atlanta Center
01:20PM 34.3164 -84.7128 146° Southeast 228 262 21,300 900 Climbing Atlanta Center
01:21PM 34.2581 -84.6697 149° Southeast 233 268 22,300 900 Climbing Atlanta Center
01:22PM 34.2019 -84.6292 149° Southeast 233 268 23,200 960 Climbing Atlanta Center
01:23PM 34.1458 -84.5861 148° Southeast 238 274 24,300 960 Climbing Atlanta Center
01:24PM 34.0917 -84.5431 147° Southeast 243 280 25,200 900 Climbing Atlanta Center
01:25PM 34.0250 -84.4950 149° Southeast 248 285 26,200 960 Climbing Atlanta Center
01:26PM 33.9667 -84.4519 149° Southeast 248 285 27,200 900 Climbing Atlanta Center
01:27PM 33.9086 -84.4067 147° Southeast 248 285 28,100 900 Climbing Atlanta Center
01:28PM 33.8481 -84.3589 147° Southeast 248 285 29,000 840 Climbing Atlanta Center
01:29PM 33.7856 -84.3136 149° Southeast 253 291 29,800 840 Climbing Atlanta Center
01:30PM 33.7189 -84.2686 151° Southeast 253 291 30,700 840 Climbing Atlanta Center
01:31PM 33.6564 -84.2211 148° Southeast 264 304 31,500 780 Climbing Atlanta Center
01:32PM 33.5917 -84.1711 147° Southeast 273 314 32,300 780 Climbing Atlanta Center
01:33PM 33.5292 -84.1236 148° Southeast 273 314 33,100 720 Climbing Atlanta Center
01:34PM 33.4644 -84.0761 149° Southeast 273 314 33,800 660 Climbing Atlanta Center
01:35PM 33.4019 -84.0289 148° Southeast 273 314 34,500 660 Climbing Atlanta Center
01:36PM 33.3331 -83.9767 148° Southeast 273 314 35,200 660 Climbing Atlanta Center
01:37PM 33.2681 -83.9294 149° Southeast 273 314 35,900 360 Climbing Atlanta Center
01:38PM 33.2075 -83.8872 150° Southeast 273 314 36,000  Climbing Atlanta Center
01:39PM 33.1325 -83.8281 147° Southeast 297 342 36,000  Level Atlanta Center
01:40PM 33.0508 -83.7636 147° Southeast 316 364 36,000  Level Atlanta Center
01:41PM 32.9692 -83.7022 148° Southeast 327 376 36,000  Level Atlanta Center
01:43PM 32.8078 -83.5822 148° Southeast 345 397 36,000  Level Jacksonville Center
01:44PM 32.7225 -83.5197 148° Southeast 345 397 36,000  Level Jacksonville Center
01:45PM 32.6372 -83.4575 148° Southeast 352 405 36,000  Level Jacksonville Center
01:46PM 32.5539 -83.3978 149° Southeast 352 405 36,000  Level Jacksonville Center
01:47PM 32.4686 -83.3333 147° Southeast 359 413 36,000  Level Jacksonville Center
01:48PM 32.3811 -83.2714 149° Southeast 359 413 36,000  Level Jacksonville Center
01:49PM 32.2978 -83.2097 148° Southeast 359 413 36,000  Level Jacksonville Center
01:50PM 32.2039 -83.1406 148° Southeast 359 413 36,000  Level Jacksonville Center
01:51PM 32.1183 -83.0789 149° Southeast 359 413 36,000  Level Jacksonville Center
01:52PM 32.0328 -83.0150 148° Southeast 359 413 36,000  Level Jacksonville Center
01:53PM 31.9472 -82.9564 150° Southeast 359 413 36,000  Level Jacksonville Center
01:54PM 31.8617 -82.8925 148° Southeast 359 413 36,000  Level Jacksonville Center
01:55PM 31.7739 -82.8314 149° Southeast 359 413 36,000  Level Jacksonville Center
01:56PM 31.6906 -82.7706 148° Southeast 359 413 36,000  Level Jacksonville Center
01:57PM 31.6028 -82.7097 149° Southeast 359 413 36,000  Level Jacksonville Center
01:58PM 31.5169 -82.6489 149° Southeast 359 413 36,000  Level Jacksonville Center
01:59PM 31.4292 -82.5906 150° Southeast 359 413 36,000  Level Jacksonville Center
02:00PM 31.3456 -82.5375 152° Southeast 353 406 36,000  Level Jacksonville Center
02:01PM 31.2617 -82.4744 147° Southeast 353 406 36,000  Level Jacksonville Center
02:02PM 31.1781 -82.4094 146° Southeast 359 413 36,000  Level Jacksonville Center
02:03PM 31.0900 -82.3492 150° Southeast 359 413 36,000  Level Jacksonville Center
02:04PM 31.0042 -82.2892 149° Southeast 359 413 36,000  Level Jacksonville Center
02:05PM 30.9203 -82.2292 148° Southeast 359 413 36,000  Level Jacksonville Center
02:06PM 30.8325 -82.1692 150° Southeast 359 413 36,000  Level Jacksonville Center
02:07PM 30.7464 -82.1069 148° Southeast 359 413 36,000  Level Jacksonville Center
02:08PM 30.6625 -82.0472 149° Southeast 359 413 36,000  Level Jacksonville Center
02:09PM 30.5953 -82.0019 150° Southeast 359 413 36,000  Level Jacksonville Center
02:10PM 30.4925 -81.9283 148° Southeast 352 405 36,000  Level Jacksonville Center
02:11PM 30.4106 -81.8689 148° Southeast 363 418 36,000  Level Jacksonville Center
02:12PM 30.3244 -81.8097 149° Southeast 363 418 36,000 -60 Level Jacksonville Center
02:13PM 30.2447 -81.7408 143° Southeast 363 418 35,900  Descending Jacksonville Center
02:14PM 30.1894 -81.6333 121° Southeast 351 404 36,000  Climbing Jacksonville Center
02:15PM 30.1422 -81.5306 118° Southeast 351 404 36,000  Level Jacksonville Center
02:16PM 30.1139 -81.4231 107° East 356 410 36,000  Level Jacksonville Center
02:17PM 30.0689 -81.3228 117° Southeast 356 410 36,000  Level Jacksonville Center
02:18PM 30.0239 -81.2181 116° Southeast 361 415 36,000  Level Jacksonville Center
02:19PM 29.9786 -81.1133 117° Southeast 361 415 36,000 -300 Level Jacksonville Center
02:20PM 29.9064 -81.0356 137° Southeast 361 415 35,400 -540 Descending Jacksonville Center
02:21PM 29.8042 -81.0400 182° South 326 375 35,000 -240 Descending Jacksonville Center
02:22PM 29.7042 -81.0561 188° South 340 391 35,000 -60 Level Jacksonville Center
02:23PM 29.6000 -81.0725 188° South 355 409 34,900 -600 Descending Jacksonville Center
02:24PM 29.4958 -81.0864 187° South 374 430 33,800 -1,320 Descending Jacksonville Center
02:27PM 29.2606 -81.0164 165° South 383 441 30,600 -1,500 Descending Miami Center
02:28PM 29.1614 -80.9864 165° South 383 441 29,000 -1,320 Descending Miami Center
02:29PM 29.0622 -80.9542 164° South 378 435 28,000 -540 Descending Miami Center
02:30PM 28.9672 -80.9200 163° South 372 428 28,000  Level Miami Center
02:31PM 28.8639 -80.8853 164° South 353 406 28,000  Level Miami Center
02:32PM 28.7689 -80.8536 164° South 353 406 28,000 -60 Level Miami Center
02:33PM 28.6717 -80.8217 164° South 353 406 27,900 -840 Descending Miami Center
02:34PM 28.5744 -80.7875 163° South 361 415 26,400 -1,440 Descending Miami Center
02:35PM 28.4689 -80.7553 165° South 379 436 25,100 -1,140 Descending Miami Center
02:36PM 28.3678 -80.7189 162° South 385 443 24,200 -600 Descending Miami Center
02:37PM 28.2664 -80.6847 163° South 385 443 24,000 -300 Descending Miami Center
02:38PM 28.1692 -80.6531 164° South 370 426 23,600 -1,140 Descending Miami Center
02:39PM 28.0761 -80.6219 164° South 365 420 21,800 -1,980 Descending Miami Center
02:40PM 27.9747 -80.5878 163° South 365 420 19,700 -1,800 Descending Miami Center
02:41PM 27.8794 -80.5567 164° South 365 420 18,200 -1,740 Descending Miami Center
02:42PM 27.7986 -80.5328 165° South 348 400 16,300 -1,140 Descending Miami Center
02:43PM 27.6989 -80.5108 169° South 342 394 16,000 -180 Descending Miami Center
02:44PM 27.6186 -80.5553 206° Southwest 316 364 16,000  Level Miami Center
02:45PM 27.5564 -80.6233 224° Southwest 315 362 16,000  Level Miami Center
02:46PM 27.4919 -80.6917 223° Southwest 325 374 16,000  Level Miami Center
02:47PM 27.4403 -80.7458 223° Southwest 325 374 16,000  Level Miami Center
02:48PM 27.3586 -80.8319 223° Southwest 325 374 16,000  Level Miami Center
02:49PM 27.2961 -80.8978 223° Southwest 320 368 16,000 -240 Level Miami Center
02:50PM 27.2339 -80.9656 224° Southwest 315 362 15,600 -780 Descending Miami Center
02:51PM 27.1669 -81.0356 223° Southwest 322 371 14,500 -1,020 Descending Miami Center
02:52PM 27.1067 -81.1011 224° Southwest 331 381 13,600 -1,020 Descending Miami Center
02:53PM 27.0378 -81.1731 223° Southwest 331 381 12,500 -1,500 Descending Miami Center
02:54PM 26.9731 -81.2406 223° Southwest 321 369 10,600 -1,260 Descending Miami Center
02:55PM 26.9150 -81.3014 223° Southwest 302 348 10,000 -300 Descending Miami Center
02:56PM 26.8525 -81.3617 221° Southwest 296 341 10,000  Level Miami Center
02:57PM 26.7800 -81.4100 211° Southwest 308 354 10,100  Climbing Miami Center
02:58PM 26.6950 -81.4603 208° Southwest 319 367 10,100  Level Miami Center
02:59PM 26.6206 -81.5039 208° Southwest 309 356 10,100 -420 Level Miami Center
03:00PM 26.5461 -81.5472 208° Southwest 309 356 9,300 -1,080 Descending Miami Center
03:01PM 26.4781 -81.5864 207° Southwest 293 337 8,000 -1,320 Descending Miami Center
03:03PM 26.3307 -81.6722 208° Southwest  Level Estimated
03:10PM 26.1524 -81.7756 208° Southwest  Level Estimated
03:11PM 26.1524 -81.7756 36° Northeast  Level Estimated
03:12PM 26.1524 -81.7756 36° Northeast  Level Estimated
03:13PM 26.1524 -81.7756 36° Northeast  Level Estimated
03:14PM 26.1524 -81.7756 36° Northeast  Level Estimated
03:15PM 26.1524 -81.7756 36° Northeast  Level Estimated
03:16PM 26.1524 -81.7756 36° Northeast  Level Estimated
03:17PM 26.1524 -81.7756 36° Northeast  Level Estimated
03:18PM 26.1524 -81.7756 36° Northeast  Level Estimated